Indian Shores, Florida
Current Conditions -  °F | °C
As of 4:55 AM on Wednesday 26 Nov 2014 (Local Time) from KCLW Reporting Station
Drizzle Drizzle  
Wind Chill: 54°   Ceiling: 1100
Heat Index: 54°   Visibility: 10mi
Dew Point: 52°   Wind: 23mph
Humidity: 94%   Direction: 330°NNW
Pressure: 30.01"   Gusts: 33mph
Location:  27.8852°N, 82.845°W
Report Text: KCLW 260955Z AUTO 33020G29KT 10SM -DZ OVC011 12/11 A3001 RMK AO2 P0002
Loading
Personal Weather Stations






























Interactive Weather Map New forecast layout! Learn more

10-Day Weather Forecast

Advertisements
Track Severe Weather on mobile